»·PEaware :: N209K KLAX-KSAN

N209K :: KLAX-KSAN

FLIGHT INFORMATION

Flight Status: Arrived
Operator: Privately registered:
United States
More flights under this callsign
Pilot: Roberto A. (10419)
Aircraft: BEECH AIRCRAFT BARON
(BE58)
More flights by this aircraft type
Origin: KLAX Los Angeles Intl
United States
Destination: KSAN San Diego Intl-Lindbergh
United States
More flights between these airports :: More routes between these airports
Route: +
File this flight plan on PilotEdge
Remarks:
Altitude:
(Current/Filed)
7,500ft
Speed:
(Current/Filed)
0kts
Departed: 15-Apr-19 02:18 PM
Arrived: 15-Apr-19 02:59 PM
Distance/Time
Traveled:
95nm/0:41
Distance/Time
To Go:
Arrived

Flight Plot

Page will automatically refresh every two minutes.


Map Options




Map Legend


Flown Route
Filed Route
Departure Airport
Arrival Airport
Navaid (VOR, NDB)
Fix

Horizontal Profiles

Position Reports

Time Latitude Longitude Heading Altitude Ground
Speed
15-Apr-19 14:05 33.934091 -118.395687 175 108ft 0kts
15-Apr-19 14:06 33.934091 -118.395687 175 108ft 0kts
15-Apr-19 14:07 33.934091 -118.395687 175 108ft 0kts
15-Apr-19 14:08 33.934091 -118.395687 175 108ft 0kts
15-Apr-19 14:09 33.934091 -118.395687 175 108ft 0kts
15-Apr-19 14:10 33.934091 -118.395687 175 108ft 0kts
15-Apr-19 14:11 33.934091 -118.395687 175 108ft 0kts
15-Apr-19 14:12 33.934129 -118.395159 72 108ft 12kts
15-Apr-19 14:13 33.935081 -118.392906 83 108ft 13kts
15-Apr-19 14:14 33.935684 -118.387226 83 108ft 19kts
15-Apr-19 14:15 33.936432 -118.382788 7 108ft 0kts
15-Apr-19 14:16 33.937190 -118.383064 305 108ft 10kts
15-Apr-19 14:17 33.934583 -118.408617 261 336ft 132kts
15-Apr-19 14:18 33.929719 -118.451761 264 1725ft 126kts
15-Apr-19 14:19 33.926206 -118.492146 253 2464ft 107kts
15-Apr-19 14:20 33.900899 -118.503687 168 3287ft 119kts
15-Apr-19 14:21 33.877931 -118.473104 119 4127ft 133kts
15-Apr-19 14:22 33.853480 -118.438476 136 4936ft 138kts
15-Apr-19 14:23 33.826701 -118.407872 136 5704ft 138kts
15-Apr-19 14:25 33.798939 -118.376170 136 6499ft 136kts
15-Apr-19 14:26 33.770971 -118.344192 136 7314ft 144kts
15-Apr-19 14:27 33.738838 -118.307497 136 7531ft 171kts
15-Apr-19 14:28 33.705754 -118.269630 136 7527ft 171kts
15-Apr-19 14:29 33.671355 -118.230275 136 7527ft 171kts
15-Apr-19 14:30 33.636829 -118.190772 136 7535ft 170kts
15-Apr-19 14:31 33.602298 -118.151257 136 7536ft 170kts
15-Apr-19 14:32 33.567616 -118.111562 136 7536ft 171kts
15-Apr-19 14:33 33.532989 -118.071927 136 7536ft 171kts
15-Apr-19 14:34 33.498348 -118.032269 136 7536ft 171kts
15-Apr-19 14:35 33.463768 -117.992677 136 7536ft 171kts
15-Apr-19 14:36 33.429753 -117.951908 136 7520ft 174kts
15-Apr-19 14:37 33.396192 -117.909685 135 7514ft 175kts
15-Apr-19 14:38 33.362161 -117.866838 135 7511ft 175kts
15-Apr-19 14:39 33.328405 -117.824325 135 7509ft 175kts
15-Apr-19 14:40 33.294713 -117.781858 135 7508ft 175kts
15-Apr-19 14:41 33.260966 -117.739305 135 7509ft 175kts
15-Apr-19 14:42 33.227245 -117.696743 135 7510ft 175kts
15-Apr-19 14:43 33.193585 -117.654235 135 7508ft 175kts
15-Apr-19 14:44 33.160127 -117.611934 135 7509ft 175kts
15-Apr-19 14:44 33.132144 -117.576580 135 7507ft 175kts
15-Apr-19 14:46 33.093091 -117.527191 135 7511ft 174kts
15-Apr-19 14:47 33.058344 -117.483283 135 7033ft 191kts
15-Apr-19 14:47 33.027492 -117.444460 135 6436ft 193kts
15-Apr-19 14:48 32.990315 -117.397667 135 5730ft 192kts
15-Apr-19 14:50 32.946703 -117.343075 136 4799ft 194kts
15-Apr-19 14:50 32.918612 -117.308159 136 4073ft 155kts
15-Apr-19 14:51 32.887690 -117.279054 156 3240ft 135kts
15-Apr-19 14:52 32.855313 -117.260180 156 2413ft 123kts
15-Apr-19 14:53 32.828071 -117.243762 155 1790ft 86kts
15-Apr-19 14:54 32.798475 -117.218451 151 1590ft 141kts
15-Apr-19 14:55 32.764237 -117.192380 118 999ft 143kts
15-Apr-19 14:56 32.741728 -117.161622 191 762ft 121kts
15-Apr-19 14:57 32.732953 -117.187285 284 19ft 74kts
15-Apr-19 14:58 32.733172 -117.191674 232 19ft 15kts
15-Apr-19 14:59 32.731349 -117.192042 21 18ft 2kts
15-Apr-19 15:00 32.731361 -117.192037 16 18ft 0kts
15-Apr-19 15:01 32.731361 -117.192037 16 18ft 0kts
15-Apr-19 15:02 32.731361 -117.192037 16 18ft 0kts
15-Apr-19 15:03 32.731361 -117.192037 16 18ft 0kts
15-Apr-19 15:04 32.731361 -117.192037 16 18ft 0kts
15-Apr-19 15:05 32.731361 -117.192037 16 18ft 0kts
15-Apr-19 15:06 32.731361 -117.192037 16 18ft 0kts
15-Apr-19 15:07 32.731361 -117.192037 16 18ft 0kts

Navigation Log

Ident Type
Flight plan parsing failed, navigation log unavailable